Terminal Aerodrome Forecast
Issued by NWS Glasgow, MT

Home | Current Version | Previous Version | Text Only | Print | Product List | Glossary On
Versions: 1 2 3 4 5 6 7 8 9 10 11 12 13 14 15 16
000
FTUS45 KGGW 251130
TAFGGW
TAF
KGGW 251130Z 2512/2612 25014G25KT P6SM VCSH OVC025
     FM251800 29019G29KT P6SM OVC040
     FM260200 30012G21KT P6SM BKN050
     FM260800 29009KT P6SM SCT060=

USA.gov is the U.S. government's official web portal to all federal, state and local government web resources and services.